Time;durP1;ratioP1;P1;durP2;ratioP2;P2;SDS_P1;SDS_P2;PMS_P1;PMS_P2;Temp;Humidity;BMP_temperature;BMP_pressure;BME280_temperature;BME280_humidity;BME280_pressure;Samples;Min_cycle;Max_cycle;Signal;HPM_P1;HPM_P2
2023/08/11 00:01:19;;;;;;;0.90;0.90;;;;;16.00;96569.00;;;;5035325;28;20213;-59
2023/08/11 00:03:47;;;;;;;1.60;1.50;;;;;15.90;96567.00;;;;5035951;28;20572;-59
2023/08/11 00:06:16;;;;;;;1.17;1.17;;;;;15.90;96574.00;;;;5035938;28;20213;-60
2023/08/11 00:08:43;;;;;;;2.50;1.53;;;;;16.00;96567.00;;;;5035459;28;20246;-59
2023/08/11 00:11:12;;;;;;;1.43;1.30;;;;;16.00;96569.00;;;;5035684;28;20657;-61
2023/08/11 00:13:40;;;;;;;0.83;0.83;;;;;16.00;96572.00;;;;5035641;28;20548;-60
2023/08/11 00:16:07;;;;;;;1.17;1.17;;;;;15.90;96564.00;;;;5035178;28;20222;-60
2023/08/11 00:18:34;;;;;;;1.17;1.17;;;;;16.00;96559.00;;;;5035299;28;20656;-59
2023/08/11 00:21:02;;;;;;;2.27;1.23;;;;;16.00;96562.00;;;;5035056;28;20224;-59
2023/08/11 00:23:31;;;;;;;0.97;0.97;;;;;16.00;96568.00;;;;5035195;28;20284;-59
2023/08/11 00:25:58;;;;;;;0.97;0.97;;;;;15.90;96567.00;;;;5035178;28;20217;-59
2023/08/11 00:28:26;;;;;;;0.70;0.70;;;;;15.90;96571.00;;;;5035130;28;20197;-59
2023/08/11 00:30:54;;;;;;;0.70;0.70;;;;;15.60;96573.00;;;;5035066;28;20188;-60
2023/08/11 00:33:21;;;;;;;0.80;0.80;;;;;15.70;96580.00;;;;5035045;28;20536;-60
2023/08/11 00:35:49;;;;;;;1.00;1.00;;;;;15.40;96575.00;;;;5034862;28;20193;-59
2023/08/11 00:38:16;;;;;;;0.87;0.87;;;;;15.40;96581.00;;;;5034961;28;20247;-59
2023/08/11 00:40:45;;;;;;;1.20;1.10;;;;;15.60;96576.00;;;;5033605;28;20201;-59
2023/08/11 00:43:12;;;;;;;0.90;0.90;;;;;15.50;96582.00;;;;5034939;28;20192;-59
2023/08/11 00:45:45;;;;;;;0.90;0.90;;;;;15.60;96576.00;;;;5034676;28;20193;-61
2023/08/11 00:48:12;;;;;;;1.50;1.43;;;;;15.70;96578.00;;;;5035060;28;20271;-59
2023/08/11 00:50:41;;;;;;;1.00;1.00;;;;;15.70;96570.00;;;;5034997;28;20207;-60
2023/08/11 00:53:09;;;;;;;1.07;1.07;;;;;15.70;96578.00;;;;5035253;28;20193;-60
2023/08/11 00:55:37;;;;;;;1.00;1.00;;;;;15.70;96571.00;;;;5035431;28;20205;-60
2023/08/11 00:58:07;;;;;;;3.90;1.37;;;;;15.70;96576.00;;;;5034898;28;20215;-60
2023/08/11 01:00:36;;;;;;;0.80;0.80;;;;;15.60;96567.00;;;;5034877;28;20185;-61
2023/08/11 01:03:04;;;;;;;0.90;0.90;;;;;15.50;96576.00;;;;5034555;28;20208;-60
2023/08/11 01:05:35;;;;;;;1.43;1.33;;;;;15.50;96575.00;;;;5034629;28;20193;-59
2023/08/11 01:08:10;;;;;;;1.20;1.10;;;;;15.40;96571.00;;;;5034561;28;20477;-60
2023/08/11 01:10:46;;;;;;;1.00;1.00;;;;;15.30;96571.00;;;;5034425;28;20657;-60
2023/08/11 01:13:19;;;;;;;0.67;0.67;;;;;15.30;96577.00;;;;5034111;28;20188;-59
2023/08/11 01:15:55;;;;;;;1.23;1.13;;;;;15.20;96570.00;;;;5034396;28;20582;-60
2023/08/11 01:18:24;;;;;;;1.47;1.37;;;;;15.20;96568.00;;;;5034691;28;20234;-60
2023/08/11 01:20:55;;;;;;;0.60;0.60;;;;;15.10;96572.00;;;;5034057;28;20193;-59
2023/08/11 01:23:24;;;;;;;2.00;1.23;;;;;15.00;96573.00;;;;5034714;28;20177;-59
2023/08/11 01:25:52;;;;;;;1.03;1.03;;;;;14.90;96572.00;;;;5034232;28;20200;-59
2023/08/11 01:28:20;;;;;;;0.83;0.83;;;;;14.90;96579.00;;;;5034436;28;20188;-59
2023/08/11 01:30:48;;;;;;;1.00;1.00;;;;;15.00;96572.00;;;;5034192;28;20230;-61
2023/08/11 01:33:15;;;;;;;0.90;0.90;;;;;14.90;96570.00;;;;5033818;28;20246;-59
2023/08/11 01:35:44;;;;;;;1.00;1.00;;;;;14.90;96567.00;;;;5033636;28;20196;-59
2023/08/11 01:38:12;;;;;;;0.80;0.80;;;;;14.90;96566.00;;;;5033745;28;20199;-60
2023/08/11 01:40:41;;;;;;;0.80;0.80;;;;;14.80;96566.00;;;;5033651;28;20251;-59
2023/08/11 01:43:11;;;;;;;0.73;0.73;;;;;14.50;96566.00;;;;5033516;28;20216;-58
2023/08/11 01:45:39;;;;;;;0.70;0.70;;;;;14.60;96573.00;;;;5033878;28;20199;-60
2023/08/11 01:48:08;;;;;;;0.93;0.93;;;;;14.60;96570.00;;;;5034027;28;20204;-59
2023/08/11 01:50:36;;;;;;;0.90;0.90;;;;;14.60;96572.00;;;;5033692;28;20197;-59
2023/08/11 01:53:04;;;;;;;1.03;1.03;;;;;14.70;96573.00;;;;5033656;28;20703;-60
2023/08/11 01:55:32;;;;;;;0.73;0.73;;;;;14.80;96570.00;;;;5032415;28;20193;-59
2023/08/11 01:58:01;;;;;;;0.93;0.93;;;;;14.90;96577.00;;;;5033415;28;20205;-60
2023/08/11 02:00:28;;;;;;;0.80;0.80;;;;;14.90;96568.00;;;;5033511;28;20247;-59
2023/08/11 02:02:57;;;;;;;0.93;0.93;;;;;14.90;96568.00;;;;5033623;28;20220;-60
2023/08/11 02:05:40;;;;;;;1.37;1.33;;;;;14.80;96568.00;;;;5152120;27;20952;-60
2023/08/11 02:08:07;;;;;;;0.97;0.97;;;;;14.70;96566.00;;;;5152155;27;20192;-60
2023/08/11 02:10:35;;;;;;;1.07;1.07;;;;;14.60;96563.00;;;;5152544;27;20218;-59
2023/08/11 02:13:02;;;;;;;1.00;1.00;;;;;14.60;96562.00;;;;5150801;27;20197;-60
2023/08/11 02:15:29;;;;;;;0.83;0.83;;;;;14.50;96565.00;;;;5152066;27;20285;-60
2023/08/11 02:17:57;;;;;;;0.70;0.70;;;;;14.70;96567.00;;;;5152122;27;20216;-59
2023/08/11 02:20:24;;;;;;;1.17;1.07;;;;;14.60;96568.00;;;;5152022;27;20193;-59
2023/08/11 02:22:53;;;;;;;1.57;1.47;;;;;14.60;96573.00;;;;5151875;27;20200;-60
2023/08/11 02:25:22;;;;;;;1.30;1.30;;;;;14.60;96563.00;;;;5152064;27;20755;-60
2023/08/11 02:27:49;;;;;;;1.23;1.23;;;;;14.70;96562.00;;;;5151873;27;20292;-60
2023/08/11 02:30:18;;;;;;;0.80;0.80;;;;;14.50;96568.00;;;;5151737;27;20193;-59
2023/08/11 02:32:46;;;;;;;1.67;1.57;;;;;14.50;96563.00;;;;5152477;27;20577;-60
2023/08/11 02:35:14;;;;;;;0.83;0.83;;;;;14.50;96568.00;;;;5151983;27;20185;-60
2023/08/11 02:37:42;;;;;;;1.17;1.17;;;;;14.50;96565.00;;;;5151655;27;20215;-59
2023/08/11 02:40:11;;;;;;;1.50;1.50;;;;;14.50;96560.00;;;;5151904;27;20520;-60
2023/08/11 02:42:42;;;;;;;0.60;0.60;;;;;14.60;96560.00;;;;5151702;27;20193;-59
2023/08/11 02:45:11;;;;;;;2.23;1.90;;;;;14.50;96560.00;;;;5151426;27;20217;-59
2023/08/11 02:47:39;;;;;;;0.70;0.70;;;;;14.40;96567.00;;;;5151491;27;20307;-59
2023/08/11 02:50:08;;;;;;;0.83;0.83;;;;;14.40;96564.00;;;;5151575;27;20192;-59
2023/08/11 02:52:36;;;;;;;0.80;0.80;;;;;14.40;96562.00;;;;5151874;27;20339;-59
2023/08/11 02:55:04;;;;;;;0.97;0.97;;;;;14.30;96558.00;;;;5151470;27;20541;-59
2023/08/11 02:57:33;;;;;;;0.67;0.67;;;;;14.40;96562.00;;;;5150403;27;20637;-59
2023/08/11 03:00:01;;;;;;;0.80;0.80;;;;;14.40;96563.00;;;;5151074;27;20185;-59
2023/08/11 03:02:28;;;;;;;1.00;1.00;;;;;14.40;96554.00;;;;5151335;27;20193;-59
2023/08/11 03:04:56;;;;;;;3.93;1.33;;;;;14.30;96556.00;;;;5150883;27;20209;-59
2023/08/11 03:07:23;;;;;;;1.13;1.13;;;;;14.20;96559.00;;;;5150895;27;20212;-59
2023/08/11 03:09:51;;;;;;;0.80;0.80;;;;;14.20;96556.00;;;;5150948;27;20228;-59
2023/08/11 03:12:18;;;;;;;0.80;0.80;;;;;14.20;96560.00;;;;5151121;27;20196;-60
2023/08/11 03:14:47;;;;;;;0.60;0.60;;;;;14.00;96560.00;;;;5150710;27;20184;-59
2023/08/11 03:17:14;;;;;;;1.97;1.87;;;;;14.00;96555.00;;;;5134888;27;20217;-59
2023/08/11 03:19:42;;;;;;;1.03;1.03;;;;;13.90;96554.00;;;;5137098;27;20224;-58
2023/08/11 03:22:09;;;;;;;0.93;0.93;;;;;13.90;96552.00;;;;5136755;27;20250;-58
2023/08/11 03:24:36;;;;;;;2.97;1.10;;;;;13.80;96547.00;;;;5135341;27;20225;-58
2023/08/11 03:27:04;;;;;;;0.80;0.80;;;;;13.80;96544.00;;;;5137048;27;20205;-59
2023/08/11 03:29:31;;;;;;;0.80;0.80;;;;;13.90;96542.00;;;;5136282;27;20613;-59
2023/08/11 03:32:00;;;;;;;1.90;1.07;;;;;13.90;96544.00;;;;5137327;27;20193;-59
2023/08/11 03:34:28;;;;;;;0.90;0.90;;;;;13.90;96543.00;;;;5136733;27;20188;-60
2023/08/11 03:36:55;;;;;;;9.30;1.57;;;;;13.90;96546.00;;;;5136626;27;20217;-60
2023/08/11 03:39:22;;;;;;;1.20;1.20;;;;;13.90;96541.00;;;;5136635;27;20204;-60
2023/08/11 03:41:52;;;;;;;1.13;1.13;;;;;13.90;96544.00;;;;5136467;27;20611;-59
2023/08/11 03:44:19;;;;;;;1.07;1.07;;;;;14.00;96543.00;;;;5136402;27;20214;-60
2023/08/11 03:46:46;;;;;;;1.03;1.03;;;;;14.10;96544.00;;;;5136269;27;20205;-59
2023/08/11 03:49:17;;;;;;;0.80;0.80;;;;;14.20;96537.00;;;;5136265;27;20192;-61
2023/08/11 03:51:44;;;;;;;1.00;1.00;;;;;14.20;96542.00;;;;5136167;27;20257;-59
2023/08/11 03:54:11;;;;;;;1.43;1.37;;;;;14.10;96543.00;;;;5136264;27;20551;-60
2023/08/11 03:56:39;;;;;;;2.00;1.53;;;;;14.10;96538.00;;;;5136039;27;20209;-59
2023/08/11 03:59:06;;;;;;;0.93;0.93;;;;;14.00;96546.00;;;;5136407;27;20571;-61
2023/08/11 04:01:33;;;;;;;0.90;0.90;;;;;13.80;96560.00;;;;5136571;27;20741;-59
2023/08/11 04:04:00;;;;;;;1.37;1.30;;;;;13.70;96560.00;;;;5134739;27;20292;-59
2023/08/11 04:06:32;;;;;;;0.93;0.93;;;;;13.60;96553.00;;;;5135823;27;20300;-59
2023/08/11 04:09:00;;;;;;;1.73;1.30;;;;;13.70;96552.00;;;;5136186;27;20205;-60
2023/08/11 04:11:28;;;;;;;1.10;1.10;;;;;13.80;96548.00;;;;5135937;27;20193;-60
2023/08/11 04:13:57;;;;;;;1.23;1.17;;;;;13.80;96543.00;;;;5136337;27;20219;-60
2023/08/11 04:16:24;;;;;;;0.67;0.67;;;;;13.80;96544.00;;;;5135896;27;20209;-60
2023/08/11 04:18:51;;;;;;;0.73;0.73;;;;;13.80;96548.00;;;;5135677;27;20189;-60
2023/08/11 04:21:19;;;;;;;1.07;1.07;;;;;13.80;96549.00;;;;5135815;27;20685;-59
2023/08/11 04:23:48;;;;;;;1.27;1.20;;;;;13.70;96554.00;;;;5135729;27;20197;-59
2023/08/11 04:26:15;;;;;;;0.93;0.93;;;;;13.70;96558.00;;;;5135659;27;20217;-60
2023/08/11 04:28:43;;;;;;;1.10;1.10;;;;;13.60;96552.00;;;;5134511;27;20239;-59
2023/08/11 04:31:11;;;;;;;3.17;2.00;;;;;13.70;96552.00;;;;5135463;27;20664;-59
2023/08/11 04:33:38;;;;;;;0.90;0.90;;;;;13.60;96557.00;;;;5135512;27;20197;-59
2023/08/11 04:36:05;;;;;;;0.97;0.97;;;;;13.60;96557.00;;;;5135344;27;20606;-60
2023/08/11 04:38:33;;;;;;;1.13;1.13;;;;;13.80;96549.00;;;;5135266;27;20189;-59
2023/08/11 04:41:02;;;;;;;0.90;0.90;;;;;13.90;96547.00;;;;5135395;27;20197;-59
2023/08/11 04:43:29;;;;;;;0.87;0.87;;;;;13.90;96553.00;;;;5135504;27;20189;-60
2023/08/11 04:45:56;;;;;;;0.93;0.93;;;;;13.90;96547.00;;;;5135173;27;20232;-59
2023/08/11 04:48:24;;;;;;;0.93;0.93;;;;;13.90;96562.00;;;;5135198;27;20200;-59
2023/08/11 04:50:52;;;;;;;1.30;1.30;;;;;14.00;96560.00;;;;5135225;27;20190;-58
2023/08/11 04:53:21;;;;;;;0.80;0.80;;;;;14.00;96561.00;;;;5134990;27;20197;-59
2023/08/11 04:55:48;;;;;;;1.13;1.13;;;;;14.10;96555.00;;;;5135717;27;20647;-59
2023/08/11 04:58:17;;;;;;;1.07;1.07;;;;;14.10;96554.00;;;;5135011;27;20597;-59
2023/08/11 05:00:44;;;;;;;1.07;1.07;;;;;14.20;96558.00;;;;5135120;27;20200;-59
2023/08/11 05:03:12;;;;;;;0.97;0.97;;;;;14.30;96560.00;;;;5134872;27;20189;-59
2023/08/11 05:05:39;;;;;;;0.97;0.97;;;;;14.40;96566.00;;;;5134648;27;20213;-59
2023/08/11 05:08:06;;;;;;;1.40;1.30;;;;;14.30;96560.00;;;;5135150;27;20569;-59
2023/08/11 05:10:34;;;;;;;0.70;0.70;;;;;14.30;96563.00;;;;5134956;27;20190;-59
2023/08/11 05:13:01;;;;;;;0.93;0.93;;;;;14.40;96567.00;;;;5134588;27;20720;-60
2023/08/11 05:15:30;;;;;;;1.03;1.03;;;;;14.40;96561.00;;;;5134617;27;20196;-58
2023/08/11 05:17:57;;;;;;;0.90;0.90;;;;;14.60;96559.00;;;;5134526;27;20190;-61
2023/08/11 05:20:25;;;;;;;0.93;0.93;;;;;14.50;96557.00;;;;5134459;27;20580;-59
2023/08/11 05:22:53;;;;;;;0.87;0.87;;;;;14.60;96562.00;;;;5134660;27;20246;-59
2023/08/11 05:25:20;;;;;;;1.00;1.00;;;;;14.70;96565.00;;;;5130251;27;20245;-59
2023/08/11 05:27:48;;;;;;;1.63;1.53;;;;;14.60;96568.00;;;;5131133;27;20225;-59
2023/08/11 05:30:16;;;;;;;0.90;0.90;;;;;14.60;96570.00;;;;5130762;27;20648;-58
2023/08/11 05:32:44;;;;;;;0.80;0.80;;;;;14.60;96574.00;;;;5128245;27;20226;-59
2023/08/11 05:35:12;;;;;;;1.53;1.47;;;;;14.70;96567.00;;;;5133327;27;20259;-59
2023/08/11 05:37:41;;;;;;;1.10;1.10;;;;;14.80;96568.00;;;;5132368;27;20217;-59
2023/08/11 05:40:09;;;;;;;1.40;1.30;;;;;14.90;96568.00;;;;5132326;27;20492;-60
2023/08/11 05:42:38;;;;;;;2.00;1.80;;;;;14.80;96572.00;;;;5131125;27;20201;-59
2023/08/11 05:45:07;;;;;;;0.90;0.90;;;;;14.90;96574.00;;;;5132525;27;20213;-59
2023/08/11 05:47:35;;;;;;;1.13;1.13;;;;;15.00;96563.00;;;;5130571;27;20277;-59
2023/08/11 05:50:04;;;;;;;1.47;1.37;;;;;15.20;96564.00;;;;5132601;27;20197;-58
2023/08/11 05:52:31;;;;;;;0.70;0.70;;;;;15.00;96571.00;;;;5131912;27;20192;-58
2023/08/11 05:54:59;;;;;;;1.67;1.23;;;;;15.00;96573.00;;;;5132648;27;20201;-58
2023/08/11 05:57:26;;;;;;;2.13;0.93;;;;;15.00;96567.00;;;;5131879;27;20688;-59
2023/08/11 05:59:53;;;;;;;1.47;1.40;;;;;15.20;96562.00;;;;5131316;27;20621;-59
2023/08/11 06:02:21;;;;;;;2.00;0.87;;;;;15.30;96568.00;;;;5131964;28;20197;-59
2023/08/11 06:04:50;;;;;;;0.87;0.87;;;;;15.50;96574.00;;;;5132639;28;20217;-59
2023/08/11 06:07:18;;;;;;;1.43;1.33;;;;;15.60;96575.00;;;;5133065;28;20703;-59
2023/08/11 06:09:46;;;;;;;0.90;0.90;;;;;15.70;96561.00;;;;5133549;28;20300;-59
2023/08/11 06:12:13;;;;;;;0.87;0.87;;;;;15.70;96559.00;;;;5132723;28;20567;-59
2023/08/11 06:14:41;;;;;;;0.70;0.70;;;;;15.80;96560.00;;;;5132420;28;20200;-59
2023/08/11 06:17:08;;;;;;;1.63;1.53;;;;;15.90;96559.00;;;;5132213;28;20289;-59
2023/08/11 06:19:36;;;;;;;0.60;0.60;;;;;16.00;96559.00;;;;5131984;28;20544;-59
2023/08/11 06:22:03;;;;;;;1.00;1.00;;;;;16.00;96561.00;;;;5130768;28;20223;-60
2023/08/11 06:24:32;;;;;;;3.27;1.57;;;;;16.20;96557.00;;;;5132415;28;20223;-59
2023/08/11 06:26:59;;;;;;;1.33;1.27;;;;;16.20;96560.00;;;;5130976;28;20266;-58
2023/08/11 06:29:27;;;;;;;1.27;1.27;;;;;16.40;96564.00;;;;5131413;28;20193;-59
2023/08/11 06:31:54;;;;;;;1.43;1.33;;;;;16.40;96554.00;;;;5131393;28;20197;-59
2023/08/11 06:34:21;;;;;;;1.63;1.50;;;;;16.50;96560.00;;;;5131615;28;20193;-58
2023/08/11 06:36:49;;;;;;;1.17;1.17;;;;;16.70;96561.00;;;;5131164;28;20210;-61
2023/08/11 06:39:16;;;;;;;0.80;0.80;;;;;16.80;96561.00;;;;5132445;28;20204;-60
2023/08/11 06:41:45;;;;;;;1.57;1.47;;;;;16.80;96565.00;;;;5131099;28;20197;-59
2023/08/11 06:44:12;;;;;;;1.00;1.00;;;;;16.90;96562.00;;;;5131770;28;20197;-60
2023/08/11 06:46:40;;;;;;;0.93;0.93;;;;;17.00;96564.00;;;;5131992;28;20243;-57
2023/08/11 06:49:07;;;;;;;1.90;1.00;;;;;17.10;96560.00;;;;5131462;28;20199;-61
2023/08/11 06:51:35;;;;;;;1.63;1.17;;;;;17.30;96564.00;;;;5134141;27;20185;-60
2023/08/11 06:54:03;;;;;;;0.97;0.97;;;;;17.30;96561.00;;;;5135845;27;20197;-60
2023/08/11 06:56:30;;;;;;;0.80;0.80;;;;;17.50;96558.00;;;;5135584;27;20286;-59
2023/08/11 06:58:59;;;;;;;1.17;1.17;;;;;17.60;96562.00;;;;5135728;27;20193;-59
2023/08/11 07:01:27;;;;;;;1.13;1.13;;;;;17.80;96560.00;;;;5135492;27;20197;-59
2023/08/11 07:03:55;;;;;;;1.43;1.33;;;;;18.00;96558.00;;;;5135377;27;20204;-58
2023/08/11 07:06:22;;;;;;;0.70;0.70;;;;;18.10;96566.00;;;;5135365;27;20221;-59
2023/08/11 07:08:49;;;;;;;1.00;1.00;;;;;18.20;96558.00;;;;5134659;27;20329;-59
2023/08/11 07:11:17;;;;;;;0.90;0.90;;;;;18.20;96559.00;;;;5135076;27;20193;-59
2023/08/11 07:13:44;;;;;;;0.93;0.93;;;;;18.30;96560.00;;;;5134138;27;20280;-58
2023/08/11 07:16:13;;;;;;;1.33;1.27;;;;;18.30;96561.00;;;;5134844;27;20209;-59
2023/08/11 07:18:40;;;;;;;1.60;1.20;;;;;18.50;96557.00;;;;5132919;27;20197;-60
2023/08/11 07:21:08;;;;;;;4.87;1.87;;;;;18.60;96560.00;;;;5134956;27;20201;-58
2023/08/11 07:23:35;;;;;;;2.33;1.70;;;;;18.90;96556.00;;;;5135515;27;20212;-58
2023/08/11 07:26:02;;;;;;;0.97;0.97;;;;;18.90;96556.00;;;;5134241;27;20226;-59
2023/08/11 07:28:30;;;;;;;1.20;1.10;;;;;19.10;96560.00;;;;5133234;27;20198;-58
2023/08/11 07:30:57;;;;;;;0.90;0.90;;;;;19.30;96560.00;;;;5134906;27;20211;-58
2023/08/11 07:33:26;;;;;;;2.77;1.03;;;;;19.30;96560.00;;;;5134296;27;20261;-59
2023/08/11 07:35:53;;;;;;;1.33;0.87;;;;;19.50;96568.00;;;;5133665;27;20213;-59
2023/08/11 07:38:21;;;;;;;1.33;1.27;;;;;19.70;96566.00;;;;5133931;27;20591;-59
2023/08/11 07:40:48;;;;;;;0.80;0.80;;;;;19.90;96569.00;;;;5135191;27;20578;-59
2023/08/11 07:43:18;;;;;;;1.00;1.00;;;;;19.90;96568.00;;;;5134858;27;20212;-60
2023/08/11 07:45:45;;;;;;;3.23;2.37;;;;;20.00;96567.00;;;;5134096;27;20616;-59
2023/08/11 07:48:12;;;;;;;0.87;0.87;;;;;20.10;96569.00;;;;5134230;27;20204;-60
2023/08/11 07:50:41;;;;;;;3.80;1.43;;;;;20.20;96564.00;;;;5134423;27;20205;-59
2023/08/11 07:53:09;;;;;;;1.17;1.17;;;;;20.40;96580.00;;;;5134110;27;20216;-59
2023/08/11 07:55:36;;;;;;;1.13;0.80;;;;;20.60;96575.00;;;;5134090;27;20193;-59
2023/08/11 07:58:04;;;;;;;1.07;1.07;;;;;20.80;96580.00;;;;5134475;27;20197;-59
2023/08/11 08:00:31;;;;;;;0.88;0.88;;;;;20.90;96579.00;;;;5134397;27;20246;-59
2023/08/11 08:02:59;;;;;;;0.70;0.70;;;;;21.00;96578.00;;;;5133237;27;20217;-59
2023/08/11 08:05:26;;;;;;;0.95;0.93;;;;;21.10;96586.00;;;;5133812;27;20217;-59
2023/08/11 08:07:55;;;;;;;0.85;0.85;;;;;21.30;96589.00;;;;5133909;27;20304;-59
2023/08/11 08:10:22;;;;;;;1.33;1.23;;;;;21.40;96586.00;;;;5133378;27;20201;-59
2023/08/11 08:12:50;;;;;;;0.98;0.98;;;;;21.40;96589.00;;;;5134346;27;20653;-59
2023/08/11 08:15:18;;;;;;;0.90;0.90;;;;;21.60;96588.00;;;;5134192;27;20648;-59
2023/08/11 08:17:45;;;;;;;0.68;0.68;;;;;21.60;96591.00;;;;5133597;27;20239;-59
2023/08/11 08:20:14;;;;;;;1.17;1.08;;;;;21.80;96586.00;;;;5133974;27;20190;-60
2023/08/11 08:22:42;;;;;;;1.13;1.13;;;;;21.90;96593.00;;;;5133657;27;20194;-59
2023/08/11 08:25:11;;;;;;;1.13;1.02;;;;;22.00;96589.00;;;;5133447;27;20197;-60
2023/08/11 08:27:40;;;;;;;1.17;1.00;;;;;22.10;96593.00;;;;5132989;27;20620;-60
2023/08/11 08:30:10;;;;;;;0.88;0.88;;;;;22.10;96604.00;;;;5132899;27;20194;-60
2023/08/11 08:32:38;;;;;;;2.60;1.20;;;;;22.30;96599.00;;;;5133777;27;20198;-60
2023/08/11 08:35:07;;;;;;;1.60;1.05;;;;;22.40;96597.00;;;;5133487;27;20194;-59
2023/08/11 08:37:35;;;;;;;1.42;0.70;;;;;22.50;96595.00;;;;5133975;27;20319;-59
2023/08/11 08:40:03;;;;;;;0.90;0.90;;;;;22.70;96593.00;;;;5133643;27;20242;-59
2023/08/11 08:42:34;;;;;;;0.60;0.60;;;;;22.70;96603.00;;;;5133555;27;20580;-60
2023/08/11 08:45:03;;;;;;;0.90;0.90;;;;;22.90;96597.00;;;;5132318;27;20266;-60
2023/08/11 08:47:32;;;;;;;0.73;0.73;;;;;23.00;96593.00;;;;5133364;27;20217;-60
2023/08/11 08:50:01;;;;;;;0.73;0.73;;;;;23.10;96597.00;;;;5133176;27;20201;-59
2023/08/11 08:52:29;;;;;;;0.85;0.85;;;;;23.00;96601.00;;;;5132730;27;20229;-60
2023/08/11 08:54:56;;;;;;;0.95;0.95;;;;;23.10;96594.00;;;;5132981;27;20242;-59
2023/08/11 08:57:26;;;;;;;0.70;0.70;;;;;23.30;96593.00;;;;5132053;27;20575;-59
2023/08/11 08:59:56;;;;;;;1.70;1.60;;;;;23.40;96588.00;;;;5132834;27;20189;-60
2023/08/11 09:02:27;;;;;;;0.88;0.88;;;;;23.40;96592.00;;;;5133470;27;20254;-60
2023/08/11 09:04:56;;;;;;;0.98;0.98;;;;;23.50;96591.00;;;;5132638;27;20254;-61
2023/08/11 09:07:24;;;;;;;0.60;0.60;;;;;23.60;96593.00;;;;5132804;27;20730;-60
2023/08/11 09:09:52;;;;;;;10.07;1.30;;;;;23.70;96594.00;;;;5133056;27;20227;-60
2023/08/11 09:12:19;;;;;;;3.05;1.42;;;;;23.70;96593.00;;;;5132560;27;20201;-59
2023/08/11 09:14:46;;;;;;;3.20;1.15;;;;;23.90;96589.00;;;;5132449;27;20801;-61
2023/08/11 09:17:16;;;;;;;1.10;1.10;;;;;24.00;96581.00;;;;5132619;27;20847;-60
2023/08/11 09:19:44;;;;;;;0.82;0.82;;;;;24.10;96586.00;;;;5133209;27;20193;-59
2023/08/11 09:22:12;;;;;;;1.88;1.73;;;;;24.10;96584.00;;;;5132578;27;20197;-60
2023/08/11 09:24:40;;;;;;;0.75;0.75;;;;;24.10;96590.00;;;;5132621;27;20238;-60
2023/08/11 09:27:07;;;;;;;1.15;1.15;;;;;24.30;96571.00;;;;5132712;27;20232;-60
2023/08/11 09:29:37;;;;;;;1.05;1.00;;;;;24.40;96583.00;;;;5132480;27;20197;-59
2023/08/11 09:32:05;;;;;;;0.60;0.60;;;;;24.40;96581.00;;;;5132694;27;20201;-59
2023/08/11 09:34:34;;;;;;;0.82;0.82;;;;;24.50;96580.00;;;;5132318;27;20201;-59
2023/08/11 09:37:01;;;;;;;0.73;0.73;;;;;24.50;96587.00;;;;5132563;27;20213;-59
2023/08/11 09:39:30;;;;;;;0.65;0.65;;;;;24.80;96590.00;;;;5132519;27;20204;-60
2023/08/11 09:41:57;;;;;;;0.63;0.63;;;;;25.00;96591.00;;;;5131300;27;20536;-59
2023/08/11 09:44:25;;;;;;;0.85;0.85;;;;;25.10;96587.00;;;;5132446;27;20201;-60
2023/08/11 09:46:53;;;;;;;2.15;2.05;;;;;25.10;96587.00;;;;5131061;27;20245;-60
2023/08/11 09:49:20;;;;;;;1.48;1.38;;;;;24.90;96577.00;;;;5132051;27;20219;-60
2023/08/11 09:51:51;;;;;;;0.60;0.60;;;;;25.00;96585.00;;;;5131964;27;20278;-60
2023/08/11 09:54:20;;;;;;;0.70;0.70;;;;;25.10;96586.00;;;;5132816;27;20267;-59
2023/08/11 09:56:49;;;;;;;1.05;1.05;;;;;25.20;96593.00;;;;5131899;27;20236;-59
2023/08/11 09:59:19;;;;;;;1.77;1.67;;;;;25.20;96591.00;;;;5132601;27;20193;-59
2023/08/11 10:01:47;;;;;;;0.52;0.52;;;;;25.40;96579.00;;;;5127348;27;20186;-60
2023/08/11 10:04:19;;;;;;;0.93;0.93;;;;;25.60;96598.00;;;;5132170;28;20252;-59
2023/08/11 10:06:54;;;;;;;0.73;0.73;;;;;25.50;96593.00;;;;5132524;28;20213;-59
2023/08/11 10:09:23;;;;;;;0.65;0.65;;;;;25.40;96592.00;;;;5131615;28;20208;-60
2023/08/11 10:11:52;;;;;;;1.30;1.20;;;;;25.80;96593.00;;;;5131254;28;20198;-59
2023/08/11 10:14:21;;;;;;;0.60;0.60;;;;;25.80;96592.00;;;;5131967;28;20743;-60
2023/08/11 10:16:50;;;;;;;0.75;0.75;;;;;25.60;96584.00;;;;5131902;28;20220;-59
2023/08/11 10:19:18;;;;;;;0.77;0.77;;;;;25.60;96588.00;;;;5132032;28;20568;-60
2023/08/11 10:21:45;;;;;;;0.90;0.90;;;;;25.70;96581.00;;;;5130692;28;20201;-60
2023/08/11 10:24:14;;;;;;;1.02;1.02;;;;;25.90;96594.00;;;;5132018;27;20193;-60
2023/08/11 10:26:42;;;;;;;0.90;0.90;;;;;26.10;96583.00;;;;5135256;27;20273;-61
2023/08/11 10:29:11;;;;;;;1.52;1.42;;;;;26.30;96588.00;;;;5135997;27;20242;-61
2023/08/11 10:31:54;;;;;;;0.90;0.90;;;;;26.60;96590.00;;;;5136835;27;20246;-61
2023/08/11 10:34:22;;;;;;;0.70;0.70;;;;;26.60;96590.00;;;;5133725;27;20189;-60
2023/08/11 10:36:50;;;;;;;0.75;0.75;;;;;26.90;96592.00;;;;5135642;27;20258;-61
2023/08/11 10:39:20;;;;;;;1.80;1.25;;;;;26.90;96585.00;;;;5135402;27;20190;-60
2023/08/11 10:41:49;;;;;;;1.20;1.08;;;;;26.60;96586.00;;;;5136305;27;20201;-61
2023/08/11 10:44:18;;;;;;;0.80;0.80;;;;;26.80;96592.00;;;;5135810;27;20276;-61
2023/08/11 10:46:47;;;;;;;0.80;0.80;;;;;26.80;96580.00;;;;5135934;27;20265;-61
2023/08/11 10:49:32;;;;;;;1.60;1.50;;;;;26.90;96590.00;;;;5136096;27;20201;-61
2023/08/11 10:52:01;;;;;;;1.27;1.02;;;;;27.00;96590.00;;;;5136171;27;20559;-62
2023/08/11 10:54:30;;;;;;;1.55;1.45;;;;;27.00;96586.00;;;;5135740;27;20197;-62
2023/08/11 10:57:01;;;;;;;0.80;0.80;;;;;27.20;96589.00;;;;5134931;27;20255;-62
2023/08/11 10:59:30;;;;;;;0.90;0.90;;;;;27.40;96585.00;;;;5135515;27;20194;-62
2023/08/11 11:01:59;;;;;;;0.80;0.80;;;;;27.50;96571.00;;;;5136704;27;20612;-60
2023/08/11 11:04:30;;;;;;;1.00;1.00;;;;;27.70;96580.00;;;;5134517;27;20236;-61
2023/08/11 11:06:59;;;;;;;1.00;1.00;;;;;27.80;96577.00;;;;5135731;27;20589;-62
2023/08/11 11:09:28;;;;;;;1.17;1.17;;;;;27.90;96568.00;;;;5135291;27;20200;-62
2023/08/11 11:11:57;;;;;;;0.75;0.75;;;;;28.00;96577.00;;;;5135773;27;20246;-61
2023/08/11 11:14:24;;;;;;;1.00;1.00;;;;;28.10;96566.00;;;;5135548;27;20296;-61
2023/08/11 11:16:54;;;;;;;2.60;0.80;;;;;28.40;96571.00;;;;5135468;27;20278;-60
2023/08/11 11:19:24;;;;;;;1.67;1.58;;;;;28.30;96572.00;;;;5135291;27;20197;-61
2023/08/11 11:21:52;;;;;;;2.58;1.42;;;;;28.50;96555.00;;;;5134867;27;20242;-61
2023/08/11 11:24:20;;;;;;;0.90;0.90;;;;;28.40;96552.00;;;;5134665;27;20205;-62
2023/08/11 11:26:47;;;;;;;2.13;1.20;;;;;28.50;96546.00;;;;5134189;27;20699;-61
2023/08/11 11:29:23;;;;;;;1.20;1.20;;;;;28.70;96542.00;;;;5134602;27;20660;-61
2023/08/11 11:31:50;;;;;;;0.88;0.88;;;;;28.80;96542.00;;;;5134280;27;20185;-60
2023/08/11 11:34:18;;;;;;;0.90;0.90;;;;;29.00;96538.00;;;;5134197;27;20690;-61
2023/08/11 11:36:46;;;;;;;0.95;0.95;;;;;29.00;96538.00;;;;5134317;27;20209;-61
2023/08/11 11:39:13;;;;;;;0.75;0.75;;;;;29.30;96541.00;;;;5134268;27;20727;-62
2023/08/11 11:41:41;;;;;;;1.23;1.10;;;;;29.60;96540.00;;;;5134354;27;20208;-61
2023/08/11 11:44:08;;;;;;;1.10;1.10;;;;;29.40;96549.00;;;;5134679;27;20193;-61
2023/08/11 11:46:38;;;;;;;0.80;0.80;;;;;29.60;96549.00;;;;5133995;27;20217;-61
2023/08/11 11:49:06;;;;;;;1.20;1.20;;;;;29.40;96555.00;;;;5134153;27;20189;-61
2023/08/11 11:51:35;;;;;;;1.17;1.17;;;;;29.20;96558.00;;;;5134256;27;20225;-60
2023/08/11 11:54:04;;;;;;;0.75;0.75;;;;;29.10;96547.00;;;;5135865;27;20577;-60
2023/08/11 11:56:31;;;;;;;0.77;0.77;;;;;29.20;96549.00;;;;5135476;27;20244;-60
2023/08/11 11:58:59;;;;;;;1.05;1.05;;;;;29.40;96549.00;;;;5135554;27;20213;-60
2023/08/11 12:01:28;;;;;;;4.95;1.45;;;;;29.50;96543.00;;;;5135664;27;20221;-60
2023/08/11 12:03:58;;;;;;;0.68;0.68;;;;;29.80;96537.00;;;;5135797;27;20889;-60
2023/08/11 12:06:29;;;;;;;1.08;1.08;;;;;30.00;96539.00;;;;5135225;27;20213;-60
2023/08/11 12:09:04;;;;;;;0.80;0.80;;;;;30.10;96548.00;;;;5135427;27;20703;-60
2023/08/11 12:11:32;;;;;;;0.75;0.73;;;;;30.20;96544.00;;;;5135236;27;20182;-60
2023/08/11 12:14:00;;;;;;;1.17;1.08;;;;;30.20;96544.00;;;;5135247;27;20193;-61
2023/08/11 12:16:28;;;;;;;1.35;1.23;;;;;30.50;96544.00;;;;5135102;27;20213;-61
2023/08/11 12:19:00;;;;;;;0.80;0.80;;;;;30.80;96542.00;;;;5134444;27;20197;-60
2023/08/11 12:21:28;;;;;;;1.17;1.17;;;;;30.70;96537.00;;;;5134066;27;20310;-60
2023/08/11 12:23:55;;;;;;;1.10;1.10;;;;;30.70;96544.00;;;;5136165;27;20189;-61